SV Mia — AXA042 — position and weather

sailwx.info

Track history (hours):
 
Tides and Currents Weather Stations Pressure Air Temp Water Temp Dewpoint Dewpoint Depression Visibility Wind Speed Wind Dir Waves Ship Positions

SV Mia

Last reported at 2017-Nov-05 23:24 UTC. Time now 2017-Dec-12 06:43 UTC.
Position N 32°47' W 117°17'.
Warning: this ship's position is 36 days out of date.

Length 14 m.

Type: Sailing vessel. MMSI: 503029520.

Date/timePositionNaut miles runAvg speedWind from/ knotsBaromVisibWave heightAir tempDewpointWater temp
2017-Nov-05 23:24N 32°47' W 117°17'2 6.0
2017-Nov-05 23:00N 32°49' W 117°18'3 5.8
2017-Nov-05 22:30N 32°52' W 117°18'3 5.6
2017-Nov-05 22:00N 32°55' W 117°19'3 5.6
2017-Nov-05 21:30N 32°58' W 117°20'3 5.6
2017-Nov-05 20:59N 33°01' W 117°20'3 5.6
2017-Nov-05 20:30N 33°03' W 117°21'3 5.6
2017-Nov-05 20:00N 33°06' W 117°22'3 5.7
2017-Nov-05 19:29N 33°09' W 117°23'3 5.6
2017-Nov-05 19:00N 33°12' W 117°24'  
2017-Oct-30 20:23N 33°12' W 117°24'2 4.8
2017-Oct-30 20:00N 33°13' W 117°26'2 4.4
2017-Oct-30 19:30N 33°14' W 117°28'3 5.1
2017-Oct-30 19:00N 33°16' W 117°31'3 5.0
2017-Oct-30 18:29N 33°17' W 117°34'3 5.0
2017-Oct-30 17:59N 33°18' W 117°36'71 5.0
2017-Oct-30 03:47N 33°51' W 118°51'2 5.5
2017-Oct-30 03:29N 33°52' W 118°53'3 5.7
2017-Oct-30 03:00N 33°53' W 118°56'3 5.6
2017-Oct-30 02:29N 33°54' W 118°59'3 5.5
2017-Oct-30 02:00N 33°56' W 119°02'3 5.2
2017-Oct-30 01:25N 33°57' W 119°05'2 5.3
2017-Oct-30 01:00N 33°58' W 119°07'3 5.7
2017-Oct-30 00:30N 33°60' W 119°10'2 3.1
2017-Oct-30 00:00N 34°01' W 119°12'2 3.4
2017-Oct-29 23:29N 34°02' W 119°13'2 3.9
2017-Oct-29 23:00N 34°03' W 119°15'2 4.3
2017-Oct-29 22:30N 34°04' W 119°17'2 3.6
2017-Oct-29 22:00N 34°06' W 119°19'2 3.8
2017-Oct-29 21:30N 34°07' W 119°20'3 5.4
2017-Oct-29 20:58N 34°09' W 119°23'2 4.7
2017-Oct-29 20:26N 34°10' W 119°25'2 5.2
2017-Oct-29 20:00N 34°12' W 119°28'3 4.9
2017-Oct-29 19:20N 34°14' W 119°31'3 4.9
2017-Oct-29 18:47N 34°16' W 119°33'3 4.9
2017-Oct-29 18:07N 34°18' W 119°35'1 4.9
2017-Oct-29 18:00N 34°19' W 119°36'3 5.0
2017-Oct-29 17:30N 34°21' W 119°38'3 5.2
2017-Oct-29 16:58N 34°23' W 119°40'2 0.6
2017-Oct-29 13:37N 34°24' W 119°41'0 0.0
2017-Oct-29 13:28N 34°24' W 119°41'0 0.0
2017-Oct-29 10:55N 34°24' W 119°41'0 0.0
2017-Oct-29 09:16N 34°24' W 119°41'0 0.0
2017-Oct-28 17:22N 34°24' W 119°41'0 0.5
2017-Oct-28 16:52N 34°24' W 119°42'0 0.0
2017-Oct-28 15:08N 34°24' W 119°42'0 0.3
2017-Oct-28 14:59N 34°24' W 119°42'0 0.0
2017-Oct-28 13:47N 34°24' W 119°42'0 0.0
2017-Oct-28 12:41N 34°24' W 119°42'0 0.0
2017-Oct-28 12:29N 34°24' W 119°42'0 0.0
2017-Oct-28 11:59N 34°24' W 119°42'0 0.0
2017-Oct-28 10:56N 34°24' W 119°42'0 0.0
2017-Oct-28 07:05N 34°24' W 119°42'0 0.0
2017-Oct-28 04:54N 34°24' W 119°42'5 4.1
2017-Oct-28 03:45N 34°23' W 119°47'2 5.2
2017-Oct-28 03:20N 34°23' W 119°50'2 5.0
2017-Oct-28 02:58N 34°24' W 119°52'3 5.1
2017-Oct-28 02:24N 34°24' W 119°55'2 5.1
2017-Oct-28 01:57N 34°24' W 119°58'2 4.9
2017-Oct-28 01:30N 34°24' W 120°01'3 4.9
2017-Oct-28 00:50N 34°24' W 120°05'2 4.0
2017-Oct-28 00:21N 34°24' W 120°07'2 3.9
2017-Oct-27 23:57N 34°24' W 120°09'2 4.0
2017-Oct-27 23:28N 34°24' W 120°11'2 4.1
2017-Oct-27 22:53N 34°24' W 120°14'2 4.6
2017-Oct-27 22:27N 34°24' W 120°17'7 5.0
2017-Oct-27 21:01N 34°26' W 120°25'0 5.5
2017-Oct-27 20:57N 34°26' W 120°25'3 5.8
2017-Oct-27 20:29N 34°27' W 120°29'5 4.6
2017-Oct-27 19:21N 34°30' W 120°34'2 5.6
2017-Oct-27 19:00N 34°31' W 120°36'3 5.6
2017-Oct-27 18:30N 34°32' W 120°39'8 5.2
2017-Oct-27 16:54N 34°39' W 120°44'3 5.0
2017-Oct-27 16:19N 34°42' W 120°46'2 5.0
2017-Oct-27 16:00N 34°43' W 120°47'3 5.1
2017-Oct-27 15:30N 34°45' W 120°49'3 5.6
2017-Oct-27 15:00N 34°48' W 120°51'3 5.7
2017-Oct-27 14:30N 34°50' W 120°53'3 5.9
2017-Oct-27 14:00N 34°52' W 120°55'3 5.5
2017-Oct-27 13:29N 34°55' W 120°57'3 5.7
2017-Oct-27 12:59N 34°57' W 120°59'3 5.6
2017-Oct-27 12:30N 34°59' W 121°00'3 5.3
2017-Oct-27 12:00N 35°02' W 121°02'3 5.3
2017-Oct-27 11:29N 35°04' W 121°03'3 5.4
2017-Oct-27 11:00N 35°07' W 121°05'3 5.4
2017-Oct-27 10:30N 35°09' W 121°06'9 4.9
2017-Oct-27 08:40N 35°16' W 121°12'15 5.2
2017-Oct-27 05:46N 35°29' W 121°23'2 5.7
2017-Oct-27 05:30N 35°30' W 121°24'3 5.9
2017-Oct-27 04:58N 35°33' W 121°25'3 5.8
2017-Oct-27 04:28N 35°36' W 121°27'3 5.7
2017-Oct-27 04:00N 35°38' W 121°29'3 5.5
2017-Oct-27 03:30N 35°40' W 121°30'3 5.5
2017-Oct-27 03:00N 35°43' W 121°32'3 5.5
2017-Oct-27 02:30N 35°45' W 121°33'3 5.4
2017-Oct-27 01:59N 35°47' W 121°35'3 5.6
2017-Oct-27 01:30N 35°50' W 121°37'3 5.4
2017-Oct-27 01:00N 35°52' W 121°38'3 5.0
2017-Oct-27 00:30N 35°54' W 121°40'3 5.2
2017-Oct-27 00:00N 35°56' W 121°42'3 5.2
2017-Oct-26 23:30N 35°59' W 121°44'  
Track history (hours):
 
Tides and Currents Weather Stations Pressure Air Temp Water Temp Dewpoint Dewpoint Depression Visibility Wind Speed Wind Dir Waves Ship Positions

SV Mia

Last reported at 2017-Nov-05 23:24 UTC. Time now 2017-Dec-12 06:43 UTC.
Position N 32°47' W 117°17'.
Warning: this ship's position is 36 days out of date.

Length 14 m.

Type: Sailing vessel. MMSI: 503029520.

Date/timePositionNaut miles runAvg speedWind from/ knotsBaromVisibWave heightAir tempDewpointWater temp
2017-Nov-05 23:24N 32°47' W 117°17'2 6.0
2017-Nov-05 23:00N 32°49' W 117°18'3 5.8
2017-Nov-05 22:30N 32°52' W 117°18'3 5.6
2017-Nov-05 22:00N 32°55' W 117°19'3 5.6
2017-Nov-05 21:30N 32°58' W 117°20'3 5.6
2017-Nov-05 20:59N 33°01' W 117°20'3 5.6
2017-Nov-05 20:30N 33°03' W 117°21'3 5.6
2017-Nov-05 20:00N 33°06' W 117°22'3 5.7
2017-Nov-05 19:29N 33°09' W 117°23'3 5.6
2017-Nov-05 19:00N 33°12' W 117°24'  
2017-Oct-30 20:23N 33°12' W 117°24'2 4.8
2017-Oct-30 20:00N 33°13' W 117°26'2 4.4
2017-Oct-30 19:30N 33°14' W 117°28'3 5.1
2017-Oct-30 19:00N 33°16' W 117°31'3 5.0
2017-Oct-30 18:29N 33°17' W 117°34'3 5.0
2017-Oct-30 17:59N 33°18' W 117°36'71 5.0
2017-Oct-30 03:47N 33°51' W 118°51'2 5.5
2017-Oct-30 03:29N 33°52' W 118°53'3 5.7
2017-Oct-30 03:00N 33°53' W 118°56'3 5.6
2017-Oct-30 02:29N 33°54' W 118°59'3 5.5
2017-Oct-30 02:00N 33°56' W 119°02'3 5.2
2017-Oct-30 01:25N 33°57' W 119°05'2 5.3
2017-Oct-30 01:00N 33°58' W 119°07'3 5.7
2017-Oct-30 00:30N 33°60' W 119°10'2 3.1
2017-Oct-30 00:00N 34°01' W 119°12'2 3.4
2017-Oct-29 23:29N 34°02' W 119°13'2 3.9
2017-Oct-29 23:00N 34°03' W 119°15'2 4.3
2017-Oct-29 22:30N 34°04' W 119°17'2 3.6
2017-Oct-29 22:00N 34°06' W 119°19'2 3.8
2017-Oct-29 21:30N 34°07' W 119°20'3 5.4
2017-Oct-29 20:58N 34°09' W 119°23'2 4.7
2017-Oct-29 20:26N 34°10' W 119°25'2 5.2
2017-Oct-29 20:00N 34°12' W 119°28'3 4.9
2017-Oct-29 19:20N 34°14' W 119°31'3 4.9
2017-Oct-29 18:47N 34°16' W 119°33'3 4.9
2017-Oct-29 18:07N 34°18' W 119°35'1 4.9
2017-Oct-29 18:00N 34°19' W 119°36'3 5.0
2017-Oct-29 17:30N 34°21' W 119°38'3 5.2
2017-Oct-29 16:58N 34°23' W 119°40'2 0.6
2017-Oct-29 13:37N 34°24' W 119°41'0 0.0
2017-Oct-29 13:28N 34°24' W 119°41'0 0.0
2017-Oct-29 10:55N 34°24' W 119°41'0 0.0
2017-Oct-29 09:16N 34°24' W 119°41'0 0.0
2017-Oct-28 17:22N 34°24' W 119°41'0 0.5
2017-Oct-28 16:52N 34°24' W 119°42'0 0.0
2017-Oct-28 15:08N 34°24' W 119°42'0 0.3
2017-Oct-28 14:59N 34°24' W 119°42'0 0.0
2017-Oct-28 13:47N 34°24' W 119°42'0 0.0
2017-Oct-28 12:41N 34°24' W 119°42'0 0.0
2017-Oct-28 12:29N 34°24' W 119°42'0 0.0
2017-Oct-28 11:59N 34°24' W 119°42'0 0.0
2017-Oct-28 10:56N 34°24' W 119°42'0 0.0
2017-Oct-28 07:05N 34°24' W 119°42'0 0.0
2017-Oct-28 04:54N 34°24' W 119°42'5 4.1
2017-Oct-28 03:45N 34°23' W 119°47'2 5.2
2017-Oct-28 03:20N 34°23' W 119°50'2 5.0
2017-Oct-28 02:58N 34°24' W 119°52'3 5.1
2017-Oct-28 02:24N 34°24' W 119°55'2 5.1
2017-Oct-28 01:57N 34°24' W 119°58'2 4.9
2017-Oct-28 01:30N 34°24' W 120°01'3 4.9
2017-Oct-28 00:50N 34°24' W 120°05'2 4.0
2017-Oct-28 00:21N 34°24' W 120°07'2 3.9
2017-Oct-27 23:57N 34°24' W 120°09'2 4.0
2017-Oct-27 23:28N 34°24' W 120°11'2 4.1
2017-Oct-27 22:53N 34°24' W 120°14'2 4.6
2017-Oct-27 22:27N 34°24' W 120°17'7 5.0
2017-Oct-27 21:01N 34°26' W 120°25'0 5.5
2017-Oct-27 20:57N 34°26' W 120°25'3 5.8
2017-Oct-27 20:29N 34°27' W 120°29'5 4.6
2017-Oct-27 19:21N 34°30' W 120°34'2 5.6
2017-Oct-27 19:00N 34°31' W 120°36'3 5.6
2017-Oct-27 18:30N 34°32' W 120°39'8 5.2
2017-Oct-27 16:54N 34°39' W 120°44'3 5.0
2017-Oct-27 16:19N 34°42' W 120°46'2 5.0
2017-Oct-27 16:00N 34°43' W 120°47'3 5.1
2017-Oct-27 15:30N 34°45' W 120°49'3 5.6
2017-Oct-27 15:00N 34°48' W 120°51'3 5.7
2017-Oct-27 14:30N 34°50' W 120°53'3 5.9
2017-Oct-27 14:00N 34°52' W 120°55'3 5.5
2017-Oct-27 13:29N 34°55' W 120°57'3 5.7
2017-Oct-27 12:59N 34°57' W 120°59'3 5.6
2017-Oct-27 12:30N 34°59' W 121°00'3 5.3
2017-Oct-27 12:00N 35°02' W 121°02'3 5.3
2017-Oct-27 11:29N 35°04' W 121°03'3 5.4
2017-Oct-27 11:00N 35°07' W 121°05'3 5.4
2017-Oct-27 10:30N 35°09' W 121°06'9 4.9
2017-Oct-27 08:40N 35°16' W 121°12'15 5.2
2017-Oct-27 05:46N 35°29' W 121°23'2 5.7
2017-Oct-27 05:30N 35°30' W 121°24'3 5.9
2017-Oct-27 04:58N 35°33' W 121°25'3 5.8
2017-Oct-27 04:28N 35°36' W 121°27'3 5.7
2017-Oct-27 04:00N 35°38' W 121°29'3 5.5
2017-Oct-27 03:30N 35°40' W 121°30'3 5.5
2017-Oct-27 03:00N 35°43' W 121°32'3 5.5
2017-Oct-27 02:30N 35°45' W 121°33'3 5.4
2017-Oct-27 01:59N 35°47' W 121°35'3 5.6
2017-Oct-27 01:30N 35°50' W 121°37'3 5.4
2017-Oct-27 01:00N 35°52' W 121°38'3 5.0
2017-Oct-27 00:30N 35°54' W 121°40'3 5.2
2017-Oct-27 00:00N 35°56' W 121°42'3 5.2
2017-Oct-26 23:30N 35°59' W 121°44'  

Dump ship's entire track history